Monday, December 10, 2018, 9:28 PM EST
Back to Local

KMPO, Mt Pocono Pocono Mountains

Location: Pocono Summit, PA, United States Lat: 41.133
Local Time: 9:28 PM EST ( 2:28 GMT) Lon: -75.383
Time Zone: US/Eastern Elev: 1915 ft

Show me the last for .
Show Coded

Time T Td Feel RH Dir Speed Gust Alt SLP Vis Weather Sky Remarks
2018-12-10 20:53 18 16 11 91 310° 5 - 30.09 30.18 10 CLR None
2018-12-10 19:53 21 17 16 84 340° 3 - 30.09 30.17 10 CLR None
2018-12-10 18:53 24 17 18 74 330° 5 - 30.08 30.16 10 CLR 6-hr Min Temp (7pm): 24.1°F
6-hr Max Temp (7pm): 33.1°F
2018-12-10 17:53 25 18 19 74 340° 5 - 30.03 30.11 10 CLR None
2018-12-10 16:53 27 18 17 68 330° 10 - 30.05 30.13 10 CLR None
2018-12-10 15:53 29 18 19 63 320° 13 - 30.05 30.12 10 CLR None
2018-12-10 14:53 32 18 24 55 340° 9 - 30.03 30.11 10 CLR None
2018-12-10 13:53 32 18 22 55 340° 14 - 30.04 30.11 10 CLR None
2018-12-10 12:53 32 18 24 55 320° 9 - 30.04 30.11 10 CLR 6-hr Min Temp (1pm): 23.0°F
6-hr Max Temp (1pm): 32.0°F
2018-12-10 11:53 30 18 21 60 340° 12 - 30.06 30.13 10 CLR None
2018-12-10 10:53 29 19 20 66 350° 9 - 30.07 30.15 10 CLR None
2018-12-10 09:53 25 19 13 77 330° 14 - 30.07 30.15 10 SCT016 None
2018-12-10 09:49 25 19 12 79 320° 15 - 30.06 - 10 SCT016 None
2018-12-10 09:11 26 20 16 77 320° 10 - 30.02 - 10 OVC015 None
2018-12-10 08:53 24 19 9 80 330° 16 22 30.05 30.13 10 OVC014 None
2018-12-10 07:53 23 20 7 87 330° 13 23 30.03 30.11 10 OVC011 None
2018-12-10 06:53 23 21 8 91 340° 13 21 30.02 30.11 10 OVC010 6-hr Min Temp (7am): 21.0°F
6-hr Max Temp (7am): 23.0°F
2018-12-10 05:53 23 20 7 87 340° 15 25 30.01 30.09 10 OVC013 None
2018-12-10 05:14 23 19 8 84 330° 10 22 30.00 - 10 BKN014 None
2018-12-10 04:53 23 19 6 84 330° 15 26 29.99 30.08 10 CLR None
2018-12-10 03:53 22 18 5 84 330° 20 28 30.00 30.08 10 CLR Peak wind: 29 mph (26 kts) from 340° at 00 min
2018-12-10 02:53 21 17 7 84 330° 16 - 30.01 30.09 10 CLR None
2018-12-10 01:53 21 15 8 77 330° 14 - 30.02 30.10 10 CLR None
2018-12-10 00:53 21 14 8 73 320° 15 - 30.03 30.11 10 CLR 6-hr Min Temp (1am): 19.9°F
6-hr Max Temp (1am): 21.9°F
2018-12-09 23:53 22 14 9 71 330° 14 - 30.04 30.12 10 CLR 24-hr Min Temp (12am): 10.9°F
24-hr Max Temp (12am): 26.1°F
2018-12-09 22:53 20 14 8 77 310° 12 - 30.07 30.15 10 CLR None
2018-12-09 21:53 20 14 8 77 300° 12 - 30.09 30.18 10 CLR None

Support USWX by starting your Amazon purchase here.